createdAt,value
2019-01-26T00:00:13.300Z,1024.72
2019-01-26T00:01:13.283Z,1024.69
2019-01-26T00:02:13.265Z,1024.67
2019-01-26T00:03:13.249Z,1024.69
2019-01-26T00:04:13.231Z,1024.69
2019-01-26T00:05:13.212Z,1024.72
2019-01-26T00:06:13.195Z,1024.69
2019-01-26T00:07:13.178Z,1024.71
2019-01-26T00:08:13.159Z,1024.7
2019-01-26T00:09:13.144Z,1024.7
2019-01-26T00:10:13.128Z,1024.67
2019-01-26T00:11:13.111Z,1024.66
2019-01-26T00:12:13.091Z,1024.62
2019-01-26T00:13:13.074Z,1024.6
2019-01-26T00:14:13.056Z,1024.55
2019-01-26T00:15:13.039Z,1024.59
2019-01-26T00:16:13.022Z,1024.6
2019-01-26T00:17:13.003Z,1024.6
2019-01-26T00:18:12.986Z,1024.47
2019-01-26T00:19:12.969Z,1024.44
2019-01-26T00:20:12.952Z,1024.38
2019-01-26T00:21:12.935Z,1024.37
2019-01-26T00:22:12.919Z,1024.31
2019-01-26T00:23:12.900Z,1024.21
2019-01-26T00:24:12.883Z,1024.19
2019-01-26T00:25:12.865Z,1024.17
2019-01-26T00:26:12.847Z,1024.17
2019-01-26T00:27:12.831Z,1024.19
2019-01-26T00:28:12.817Z,1024.12
2019-01-26T00:29:12.796Z,1024.08
2019-01-26T00:30:12.778Z,1024.09
2019-01-26T00:31:12.761Z,1024.11
2019-01-26T00:32:12.744Z,1024.08
2019-01-26T00:33:12.726Z,1024.07
2019-01-26T00:34:12.711Z,1024.03
2019-01-26T00:35:12.692Z,1023.99
2019-01-26T00:36:12.675Z,1023.97
2019-01-26T00:37:12.658Z,1023.93
2019-01-26T00:38:12.638Z,1023.86
2019-01-26T00:39:12.622Z,1023.82
2019-01-26T00:40:12.611Z,1023.85
2019-01-26T00:41:12.587Z,1023.85
2019-01-26T00:42:12.571Z,1023.8
2019-01-26T00:43:12.552Z,1023.79
2019-01-26T00:44:12.534Z,1023.75
2019-01-26T00:45:12.517Z,1023.71
2019-01-26T00:46:12.513Z,1023.65
2019-01-26T00:47:12.484Z,1023.59
2019-01-26T00:48:12.466Z,1023.56
2019-01-26T00:49:12.448Z,1023.61
2019-01-26T00:50:12.430Z,1023.59
2019-01-26T00:51:17.086Z,1023.47
2019-01-26T00:52:12.396Z,1023.38
2019-01-26T00:53:12.378Z,1023.3
2019-01-26T00:54:12.362Z,1023.25
2019-01-26T00:55:12.343Z,1023.26
2019-01-26T00:56:12.327Z,1023.2
2019-01-26T00:57:12.310Z,1023.19
2019-01-26T00:58:12.293Z,1023.16
2019-01-26T00:59:12.276Z,1023.09
2019-01-26T01:00:12.258Z,1023.09
2019-01-26T01:01:12.241Z,1023.1
2019-01-26T01:02:12.224Z,1023.04
2019-01-26T01:03:12.206Z,1022.97
2019-01-26T01:04:12.189Z,1023.01
2019-01-26T01:05:12.180Z,1022.96
2019-01-26T01:06:12.153Z,1022.93
2019-01-26T01:07:12.137Z,1022.92
2019-01-26T01:08:12.118Z,1022.88
2019-01-26T01:09:12.103Z,1022.87
2019-01-26T01:10:12.085Z,1022.88
2019-01-26T01:11:12.068Z,1022.88
2019-01-26T01:12:12.051Z,1022.87
2019-01-26T01:13:12.033Z,1022.88
2019-01-26T01:14:12.016Z,1022.86
2019-01-26T01:15:11.999Z,1022.88
2019-01-26T01:16:11.982Z,1022.84
2019-01-26T01:17:11.967Z,1022.91
2019-01-26T01:18:11.948Z,1022.87
2019-01-26T01:19:11.932Z,1022.95
2019-01-26T01:20:11.912Z,1022.97
2019-01-26T01:21:11.896Z,1023
2019-01-26T01:22:11.879Z,1023.07
2019-01-26T01:23:11.869Z,1023.12
2019-01-26T01:24:11.846Z,1023.05
2019-01-26T01:25:11.834Z,1022.97
2019-01-26T01:26:11.809Z,1022.96
2019-01-26T01:27:11.792Z,1022.97
2019-01-26T01:28:11.774Z,1022.98
2019-01-26T01:29:11.757Z,1022.91
2019-01-26T01:30:11.742Z,1022.98
2019-01-26T01:31:11.723Z,1022.92
2019-01-26T01:32:11.706Z,1022.88
2019-01-26T01:33:13.147Z,1022.87
2019-01-26T01:34:11.672Z,1022.91
2019-01-26T01:35:11.656Z,1022.87
2019-01-26T01:36:11.636Z,1022.87
2019-01-26T01:37:11.618Z,1022.84
2019-01-26T01:38:11.601Z,1022.82
2019-01-26T01:39:11.583Z,1022.79
2019-01-26T01:40:11.565Z,1022.75
2019-01-26T01:41:11.549Z,1022.69
2019-01-26T01:42:11.532Z,1022.72
2019-01-26T01:43:11.514Z,1022.74
2019-01-26T01:44:11.497Z,1022.72
2019-01-26T01:45:11.478Z,1022.73
2019-01-26T01:46:11.460Z,1022.66
2019-01-26T01:47:11.444Z,1022.65
2019-01-26T01:48:11.427Z,1022.62
2019-01-26T01:49:11.410Z,1022.66
2019-01-26T01:50:11.392Z,1022.63
2019-01-26T01:51:11.376Z,1022.59
2019-01-26T01:52:11.357Z,1022.57
2019-01-26T01:53:11.340Z,1022.49
2019-01-26T01:54:11.322Z,1022.5
2019-01-26T01:55:11.305Z,1022.48
2019-01-26T01:56:11.289Z,1022.5
2019-01-26T01:57:11.270Z,1022.47
2019-01-26T01:58:11.253Z,1022.45
2019-01-26T01:59:11.235Z,1022.39
2019-01-26T02:00:11.219Z,1022.33
2019-01-26T02:01:11.201Z,1022.27
2019-01-26T02:02:11.184Z,1022.25
2019-01-26T02:03:11.169Z,1022.24
2019-01-26T02:04:11.150Z,1022.23
2019-01-26T02:05:11.132Z,1022.25
2019-01-26T02:06:11.115Z,1022.27
2019-01-26T02:07:11.098Z,1022.29
2019-01-26T02:08:11.079Z,1022.25
2019-01-26T02:09:11.062Z,1022.22
2019-01-26T02:10:11.046Z,1022.16
2019-01-26T02:11:11.029Z,1022.12
2019-01-26T02:12:11.011Z,1022.09
2019-01-26T02:13:10.993Z,1022.05
2019-01-26T02:14:10.976Z,1021.94
2019-01-26T02:15:10.959Z,1021.91
2019-01-26T02:16:10.941Z,1021.9
2019-01-26T02:17:10.926Z,1021.83
2019-01-26T02:18:10.907Z,1021.92
2019-01-26T02:19:10.889Z,1021.95
2019-01-26T02:20:10.872Z,1021.95
2019-01-26T02:21:10.855Z,1021.96
2019-01-26T02:22:10.838Z,1021.93
2019-01-26T02:23:10.820Z,1021.81
2019-01-26T02:24:10.802Z,1021.74
2019-01-26T02:25:10.787Z,1021.7
2019-01-26T02:26:10.768Z,1021.66
2019-01-26T02:27:10.750Z,1021.67
2019-01-26T02:28:10.733Z,1021.64
2019-01-26T02:29:10.717Z,1021.58
2019-01-26T02:30:10.698Z,1021.57
2019-01-26T02:31:10.681Z,1021.54
2019-01-26T02:32:10.664Z,1021.5
2019-01-26T02:33:10.647Z,1021.45
2019-01-26T02:34:10.629Z,1021.42
2019-01-26T02:35:10.612Z,1021.32
2019-01-26T02:36:10.595Z,1021.29
2019-01-26T02:37:10.578Z,1021.3
2019-01-26T02:38:10.560Z,1021.3
2019-01-26T02:39:10.543Z,1021.33
2019-01-26T02:40:10.526Z,1021.3
2019-01-26T02:41:10.512Z,1021.25
2019-01-26T02:42:10.491Z,1021.22
2019-01-26T02:43:10.474Z,1021.16
2019-01-26T02:44:10.456Z,1021.19
2019-01-26T02:45:10.439Z,1021.19
2019-01-26T02:46:10.422Z,1021.14
2019-01-26T02:47:10.405Z,1021.15
2019-01-26T02:48:10.388Z,1021.13
2019-01-26T02:49:10.370Z,1021.08
2019-01-26T02:50:10.354Z,1021.06
2019-01-26T02:51:10.337Z,1021.03
2019-01-26T02:52:10.319Z,1021.04
2019-01-26T02:53:10.300Z,1021.08
2019-01-26T02:54:10.285Z,1021.17
2019-01-26T02:55:10.268Z,1021.17
2019-01-26T02:56:10.250Z,1021.26
2019-01-26T02:57:10.234Z,1021.26
2019-01-26T02:58:10.216Z,1021.26
2019-01-26T02:59:10.207Z,1021.33
2019-01-26T03:00:10.180Z,1021.32
2019-01-26T03:01:10.164Z,1021.28
2019-01-26T03:02:10.147Z,1021.27
2019-01-26T03:03:10.129Z,1021.23
2019-01-26T03:04:10.112Z,1021.25
2019-01-26T03:05:10.095Z,1021.28
2019-01-26T03:06:10.079Z,1021.29
2019-01-26T03:07:10.059Z,1021.28
2019-01-26T03:08:10.042Z,1021.28
2019-01-26T03:09:10.026Z,1021.22
2019-01-26T03:10:10.011Z,1021.18
2019-01-26T03:11:09.992Z,1021.13
2019-01-26T03:12:09.974Z,1021.06
2019-01-26T03:13:09.959Z,1021.07
2019-01-26T03:14:09.941Z,1021.06
2019-01-26T03:15:09.926Z,1021.05
2019-01-26T03:16:09.910Z,1021.07
2019-01-26T03:17:09.888Z,1021.01
2019-01-26T03:18:09.870Z,1021.02
2019-01-26T03:19:09.852Z,1021.03
2019-01-26T03:20:09.836Z,1020.99
2019-01-26T03:21:09.820Z,1021
2019-01-26T03:22:09.804Z,1020.97
2019-01-26T03:23:09.784Z,1020.94
2019-01-26T03:24:09.770Z,1020.88
2019-01-26T03:25:09.754Z,1020.83
2019-01-26T03:26:09.732Z,1020.79
2019-01-26T03:27:09.715Z,1020.79
2019-01-26T03:28:09.697Z,1020.76
2019-01-26T03:29:09.679Z,1020.77
2019-01-26T03:30:09.663Z,1020.79
2019-01-26T03:31:09.647Z,1020.75
2019-01-26T03:32:09.639Z,1020.77
2019-01-26T03:33:09.623Z,1020.81
2019-01-26T03:34:09.597Z,1020.84
2019-01-26T03:35:09.578Z,1020.82
2019-01-26T03:36:09.559Z,1020.8
2019-01-26T03:37:09.542Z,1020.75
2019-01-26T03:38:09.525Z,1020.76
2019-01-26T03:39:09.507Z,1020.76
2019-01-26T03:40:09.490Z,1020.74
2019-01-26T03:41:09.475Z,1020.67
2019-01-26T03:42:09.455Z,1020.69
2019-01-26T03:43:09.438Z,1020.65
2019-01-26T03:44:09.421Z,1020.66
2019-01-26T03:45:09.403Z,1020.59
2019-01-26T03:46:09.386Z,1020.63
2019-01-26T03:47:13.593Z,1020.55
2019-01-26T03:48:09.351Z,1020.52
2019-01-26T03:49:09.334Z,1020.52
2019-01-26T03:50:09.317Z,1020.51
2019-01-26T03:51:09.302Z,1020.51
2019-01-26T03:52:09.282Z,1020.48
2019-01-26T03:53:09.266Z,1020.49
2019-01-26T03:54:09.254Z,1020.4
2019-01-26T03:55:09.231Z,1020.35
2019-01-26T03:56:09.213Z,1020.27
2019-01-26T03:57:09.195Z,1020.25
2019-01-26T03:58:09.182Z,1020.25
2019-01-26T03:59:09.161Z,1020.16
2019-01-26T04:00:09.143Z,1020.17
2019-01-26T04:01:09.127Z,1020.18
2019-01-26T04:02:09.110Z,1020.19
2019-01-26T04:03:09.102Z,1020.2
2019-01-26T04:04:09.076Z,1020.18
2019-01-26T04:05:09.058Z,1020.2
2019-01-26T04:06:09.040Z,1020.16
2019-01-26T04:07:09.023Z,1020.15
2019-01-26T04:08:09.006Z,1020.1
2019-01-26T04:09:08.987Z,1020.07
2019-01-26T04:10:08.977Z,1020.06
2019-01-26T04:11:08.955Z,1020.04
2019-01-26T04:12:08.938Z,1019.89
2019-01-26T04:13:08.920Z,1019.88
2019-01-26T04:14:08.905Z,1019.92
2019-01-26T04:15:08.885Z,1019.89
2019-01-26T04:16:08.868Z,1019.85
2019-01-26T04:17:08.855Z,1019.84
2019-01-26T04:18:08.834Z,1019.85
2019-01-26T04:19:08.817Z,1019.8
2019-01-26T04:20:08.799Z,1019.81
2019-01-26T04:21:08.783Z,1019.77
2019-01-26T04:22:08.765Z,1019.77
2019-01-26T04:23:08.749Z,1019.74
2019-01-26T04:24:08.729Z,1019.69
2019-01-26T04:25:08.714Z,1019.61
2019-01-26T04:26:08.697Z,1019.59
2019-01-26T04:27:08.679Z,1019.62
2019-01-26T04:28:08.662Z,1019.6
2019-01-26T04:29:08.645Z,1019.59
2019-01-26T04:30:08.628Z,1019.57
2019-01-26T04:31:08.611Z,1019.65
2019-01-26T04:32:08.594Z,1019.56
2019-01-26T04:33:08.577Z,1019.6
2019-01-26T04:34:08.559Z,1019.55
2019-01-26T04:35:08.543Z,1019.5
2019-01-26T04:36:08.525Z,1019.51
2019-01-26T04:37:08.509Z,1019.45
2019-01-26T04:38:08.496Z,1019.45
2019-01-26T04:39:08.474Z,1019.43
2019-01-26T04:40:08.458Z,1019.44
2019-01-26T04:41:08.441Z,1019.4
2019-01-26T04:42:08.424Z,1019.38
2019-01-26T04:43:08.408Z,1019.35
2019-01-26T04:44:08.390Z,1019.37
2019-01-26T04:45:08.376Z,1019.35
2019-01-26T04:46:08.357Z,1019.35
2019-01-26T04:47:08.337Z,1019.32
2019-01-26T04:48:08.322Z,1019.3
2019-01-26T04:49:08.305Z,1019.26
2019-01-26T04:50:08.317Z,1019.21
2019-01-26T04:51:08.272Z,1019.21
2019-01-26T04:52:08.267Z,1019.22
2019-01-26T04:53:08.236Z,1019.18
2019-01-26T04:54:08.220Z,1019.17
2019-01-26T04:55:08.208Z,1019.11
2019-01-26T04:56:08.226Z,1019.12
2019-01-26T04:57:08.168Z,1019.06
2019-01-26T04:58:08.152Z,1018.99
2019-01-26T04:59:08.135Z,1019.03
2019-01-26T05:00:08.117Z,1019.03
2019-01-26T05:01:08.101Z,1018.96
2019-01-26T05:02:08.086Z,1018.96
2019-01-26T05:03:08.068Z,1018.91
2019-01-26T05:04:08.050Z,1018.85
2019-01-26T05:05:08.033Z,1018.87
2019-01-26T05:06:08.016Z,1018.9
2019-01-26T05:07:07.999Z,1018.82
2019-01-26T05:08:07.983Z,1018.81
2019-01-26T05:09:07.967Z,1018.76
2019-01-26T05:10:07.952Z,1018.81
2019-01-26T05:11:07.933Z,1018.83
2019-01-26T05:12:07.922Z,1018.79
2019-01-26T05:13:07.899Z,1018.75
2019-01-26T05:14:07.883Z,1018.82
2019-01-26T05:15:07.866Z,1018.78
2019-01-26T05:16:07.849Z,1018.78
2019-01-26T05:17:07.834Z,1018.8
2019-01-26T05:18:07.816Z,1018.79
2019-01-26T05:19:07.801Z,1018.79
2019-01-26T05:20:07.783Z,1018.73
2019-01-26T05:21:07.765Z,1018.7
2019-01-26T05:22:07.749Z,1018.68
2019-01-26T05:23:08.044Z,1018.63
2019-01-26T05:24:07.716Z,1018.66
2019-01-26T05:25:07.698Z,1018.63
2019-01-26T05:26:07.681Z,1018.64
2019-01-26T05:27:07.665Z,1018.56
2019-01-26T05:28:07.648Z,1018.54
2019-01-26T05:29:07.632Z,1018.52
2019-01-26T05:30:07.617Z,1018.45
2019-01-26T05:31:07.600Z,1018.47
2019-01-26T05:32:07.583Z,1018.44
2019-01-26T05:33:07.567Z,1018.44
2019-01-26T05:34:07.551Z,1018.44
2019-01-26T05:35:07.562Z,1018.42
2019-01-26T05:36:07.517Z,1018.43
2019-01-26T05:37:07.498Z,1018.43
2019-01-26T05:38:07.483Z,1018.43
2019-01-26T05:39:07.466Z,1018.44
2019-01-26T05:40:07.449Z,1018.36
2019-01-26T05:41:07.437Z,1018.33
2019-01-26T05:42:07.422Z,1018.32
2019-01-26T05:43:07.401Z,1018.31
2019-01-26T05:44:07.384Z,1018.34
2019-01-26T05:45:07.367Z,1018.3
2019-01-26T05:46:07.354Z,1018.29
2019-01-26T05:47:07.335Z,1018.27
2019-01-26T05:48:07.319Z,1018.22
2019-01-26T05:49:07.302Z,1018.26
2019-01-26T05:50:07.286Z,1018.28
2019-01-26T05:51:07.268Z,1018.27
2019-01-26T05:52:07.251Z,1018.33
2019-01-26T05:53:07.237Z,1018.32
2019-01-26T05:54:07.220Z,1018.29
2019-01-26T05:55:07.208Z,1018.25
2019-01-26T05:56:07.187Z,1018.23
2019-01-26T05:57:07.170Z,1018.17
2019-01-26T05:58:07.156Z,1018.13
2019-01-26T05:59:07.137Z,1018.08
2019-01-26T06:00:07.127Z,1018.05
2019-01-26T06:01:07.113Z,1018.04
2019-01-26T06:02:07.087Z,1018.06
2019-01-26T06:03:07.079Z,1018.01
2019-01-26T06:04:07.057Z,1018.05
2019-01-26T06:05:07.041Z,1018.09
2019-01-26T06:06:07.025Z,1018.01
2019-01-26T06:07:07.011Z,1017.95
2019-01-26T06:08:06.993Z,1017.92
2019-01-26T06:09:06.975Z,1017.93
2019-01-26T06:10:06.957Z,1017.96
2019-01-26T06:11:06.943Z,1017.92
2019-01-26T06:12:06.935Z,1017.93
2019-01-26T06:13:06.909Z,1017.91
2019-01-26T06:14:06.895Z,1017.93
2019-01-26T06:15:06.878Z,1017.94
2019-01-26T06:16:06.861Z,1017.97
2019-01-26T06:17:06.845Z,1017.97
2019-01-26T06:18:06.830Z,1017.92
2019-01-26T06:19:06.813Z,1017.85
2019-01-26T06:20:06.798Z,1017.82
2019-01-26T06:21:06.781Z,1017.83
2019-01-26T06:22:06.765Z,1017.86
2019-01-26T06:23:06.747Z,1017.83
2019-01-26T06:24:06.733Z,1017.84
2019-01-26T06:25:06.717Z,1017.85
2019-01-26T06:26:06.700Z,1017.81
2019-01-26T06:27:06.684Z,1017.77
2019-01-26T06:28:06.669Z,1017.73
2019-01-26T06:29:06.652Z,1017.72
2019-01-26T06:30:06.636Z,1017.65
2019-01-26T06:31:06.621Z,1017.6
2019-01-26T06:32:06.604Z,1017.59
2019-01-26T06:33:06.588Z,1017.51
2019-01-26T06:34:06.572Z,1017.57
2019-01-26T06:35:06.559Z,1017.56
2019-01-26T06:36:06.539Z,1017.5
2019-01-26T06:37:06.524Z,1017.51
2019-01-26T06:38:06.508Z,1017.49
2019-01-26T06:39:06.491Z,1017.49
2019-01-26T06:40:06.476Z,1017.46
2019-01-26T06:41:06.461Z,1017.47
2019-01-26T06:42:06.446Z,1017.42
2019-01-26T06:43:06.430Z,1017.4
2019-01-26T06:44:06.413Z,1017.37
2019-01-26T06:45:06.398Z,1017.33
2019-01-26T06:46:06.381Z,1017.29
2019-01-26T06:47:06.365Z,1017.31
2019-01-26T06:48:06.349Z,1017.29
2019-01-26T06:49:06.335Z,1017.28
2019-01-26T06:50:06.319Z,1017.27
2019-01-26T06:51:06.303Z,1017.28
2019-01-26T06:52:06.287Z,1017.25
2019-01-26T06:53:06.270Z,1017.19
2019-01-26T06:54:06.255Z,1017.23
2019-01-26T06:55:06.239Z,1017.25
2019-01-26T06:56:06.224Z,1017.24
2019-01-26T06:57:06.208Z,1017.2
2019-01-26T06:58:06.194Z,1017.16
2019-01-26T06:59:06.177Z,1017.16
2019-01-26T07:00:06.162Z,1017.04
2019-01-26T07:01:06.153Z,1017.07
2019-01-26T07:02:06.128Z,1017.04
2019-01-26T07:03:06.114Z,1017.02
2019-01-26T07:04:06.102Z,1016.98
2019-01-26T07:05:06.085Z,1016.97
2019-01-26T07:06:06.067Z,1016.97
2019-01-26T07:07:06.052Z,1016.96
2019-01-26T07:08:06.035Z,1016.97
2019-01-26T07:09:06.021Z,1016.96
2019-01-26T07:10:06.006Z,1016.94
2019-01-26T07:11:05.990Z,1016.94
2019-01-26T07:12:05.973Z,1016.98
2019-01-26T07:13:05.958Z,1016.96
2019-01-26T07:14:05.943Z,1016.98
2019-01-26T07:15:05.927Z,1017
2019-01-26T07:16:05.911Z,1017.05
2019-01-26T07:17:05.909Z,1017.07
2019-01-26T07:18:09.439Z,1017.05
2019-01-26T07:19:05.864Z,1017.04
2019-01-26T07:20:05.850Z,1017.1
2019-01-26T07:21:05.835Z,1017.09
2019-01-26T07:22:05.819Z,1017.1
2019-01-26T07:23:05.804Z,1017.07
2019-01-26T07:24:05.791Z,1017.03
2019-01-26T07:25:05.773Z,1017.01
2019-01-26T07:26:05.758Z,1017
2019-01-26T07:27:05.741Z,1017.01
2019-01-26T07:28:05.728Z,1017.07
2019-01-26T07:29:05.712Z,1017.09
2019-01-26T07:30:05.700Z,1017.05
2019-01-26T07:31:06.638Z,1017.08
2019-01-26T07:32:05.666Z,1017.07
2019-01-26T07:33:05.651Z,1017.04
2019-01-26T07:34:05.635Z,1017.11
2019-01-26T07:35:05.620Z,1017.06
2019-01-26T07:36:05.605Z,1017.08
2019-01-26T07:37:05.588Z,1017.11
2019-01-26T07:38:05.572Z,1017.11
2019-01-26T07:39:05.558Z,1017.07
2019-01-26T07:40:05.544Z,1017.02
2019-01-26T07:41:05.528Z,1017.01
2019-01-26T07:42:05.514Z,1017.06
2019-01-26T07:43:05.498Z,1017.03
2019-01-26T07:44:05.482Z,1017.06
2019-01-26T07:45:05.467Z,1017.08
2019-01-26T07:46:05.452Z,1017.07
2019-01-26T07:47:05.437Z,1017.16
2019-01-26T07:48:05.423Z,1017.14
2019-01-26T07:49:05.406Z,1017.16
2019-01-26T07:50:05.391Z,1017.18
2019-01-26T07:51:05.377Z,1017.19
2019-01-26T07:52:05.360Z,1017.19
2019-01-26T07:53:05.346Z,1017.22
2019-01-26T07:54:05.332Z,1017.14
2019-01-26T07:55:05.316Z,1017.09
2019-01-26T07:56:05.300Z,1017.1
2019-01-26T07:57:05.286Z,1017.09
2019-01-26T07:58:05.272Z,1017.06
2019-01-26T07:59:05.258Z,1017.04
2019-01-26T08:00:05.241Z,1017.03
2019-01-26T08:01:05.229Z,1017
2019-01-26T08:02:05.210Z,1016.97
2019-01-26T08:03:05.195Z,1016.91
2019-01-26T08:04:05.181Z,1016.92
2019-01-26T08:05:05.167Z,1016.9
2019-01-26T08:06:05.153Z,1016.9
2019-01-26T08:07:05.136Z,1016.84
2019-01-26T08:08:05.121Z,1016.79
2019-01-26T08:09:05.107Z,1016.85
2019-01-26T08:10:05.092Z,1016.87
2019-01-26T08:11:05.077Z,1016.86
2019-01-26T08:12:05.065Z,1016.84
2019-01-26T08:13:05.051Z,1016.91
2019-01-26T08:14:05.032Z,1016.91
2019-01-26T08:15:05.018Z,1016.88
2019-01-26T08:16:05.002Z,1016.87
2019-01-26T08:17:04.988Z,1016.86
2019-01-26T08:18:04.974Z,1016.82
2019-01-26T08:19:04.961Z,1016.76
2019-01-26T08:20:04.946Z,1016.78
2019-01-26T08:21:04.930Z,1016.81
2019-01-26T08:22:04.918Z,1016.79
2019-01-26T08:23:04.902Z,1016.77
2019-01-26T08:24:04.889Z,1016.73
2019-01-26T08:25:04.877Z,1016.72
2019-01-26T08:26:04.856Z,1016.69
2019-01-26T08:27:04.842Z,1016.62
2019-01-26T08:28:04.828Z,1016.66
2019-01-26T08:29:04.812Z,1016.64
2019-01-26T08:30:04.799Z,1016.62
2019-01-26T08:31:04.784Z,1016.59
2019-01-26T08:32:04.768Z,1016.62
2019-01-26T08:33:04.753Z,1016.62
2019-01-26T08:34:04.740Z,1016.58
2019-01-26T08:35:04.724Z,1016.56
2019-01-26T08:36:04.710Z,1016.55
2019-01-26T08:37:04.695Z,1016.61
2019-01-26T08:38:04.681Z,1016.59
2019-01-26T08:39:04.666Z,1016.57
2019-01-26T08:40:04.652Z,1016.57
2019-01-26T08:41:04.636Z,1016.53
2019-01-26T08:42:04.623Z,1016.52
2019-01-26T08:43:04.607Z,1016.48
2019-01-26T08:44:04.596Z,1016.45
2019-01-26T08:45:04.580Z,1016.43
2019-01-26T08:46:04.566Z,1016.45
2019-01-26T08:47:04.552Z,1016.43
2019-01-26T08:48:04.536Z,1016.39
2019-01-26T08:49:04.523Z,1016.38
2019-01-26T08:50:04.508Z,1016.38
2019-01-26T08:51:04.496Z,1016.35
2019-01-26T08:52:04.479Z,1016.37
2019-01-26T08:53:04.464Z,1016.37
2019-01-26T08:54:04.450Z,1016.4
2019-01-26T08:55:04.438Z,1016.39
2019-01-26T08:56:04.423Z,1016.37
2019-01-26T08:57:04.408Z,1016.37
2019-01-26T08:58:04.393Z,1016.36
2019-01-26T08:59:04.380Z,1016.32
2019-01-26T09:00:04.364Z,1016.27
2019-01-26T09:01:04.351Z,1016.22
2019-01-26T09:02:04.337Z,1016.15
2019-01-26T09:03:04.323Z,1016.13
2019-01-26T09:04:04.310Z,1016.11
2019-01-26T09:05:04.294Z,1016.14
2019-01-26T09:06:04.279Z,1016.12
2019-01-26T09:07:04.267Z,1016.14
2019-01-26T09:08:04.252Z,1016.14
2019-01-26T09:09:04.238Z,1016.11
2019-01-26T09:10:04.226Z,1016.08
2019-01-26T09:11:04.214Z,1016.08
2019-01-26T09:12:04.196Z,1016.04
2019-01-26T09:13:04.182Z,1016.06
2019-01-26T09:14:04.168Z,1016.01
2019-01-26T09:15:04.155Z,1015.99
2019-01-26T09:16:04.140Z,1015.98
2019-01-26T09:17:04.126Z,1015.99
2019-01-26T09:18:04.111Z,1015.97
2019-01-26T09:19:04.102Z,1015.97
2019-01-26T09:20:04.083Z,1015.96
2019-01-26T09:21:04.071Z,1016.01
2019-01-26T09:22:04.057Z,1016.03
2019-01-26T09:23:04.042Z,1016
2019-01-26T09:24:04.028Z,1015.95
2019-01-26T09:25:04.015Z,1015.93
2019-01-26T09:26:04.002Z,1015.94
2019-01-26T09:27:03.987Z,1015.96
2019-01-26T09:28:03.973Z,1015.98
2019-01-26T09:29:03.958Z,1015.95
2019-01-26T09:30:03.944Z,1015.98
2019-01-26T09:31:03.930Z,1015.95
2019-01-26T09:32:03.916Z,1015.94
2019-01-26T09:33:03.904Z,1015.9
2019-01-26T09:34:03.889Z,1015.94
2019-01-26T09:35:03.876Z,1015.94
2019-01-26T09:36:03.862Z,1015.92
2019-01-26T09:37:03.847Z,1015.91
2019-01-26T09:38:03.834Z,1015.95
2019-01-26T09:39:03.821Z,1015.95
2019-01-26T09:40:03.807Z,1015.94
2019-01-26T09:41:03.792Z,1015.96
2019-01-26T09:42:03.778Z,1016
2019-01-26T09:43:03.764Z,1016
2019-01-26T09:44:03.751Z,1016.02
2019-01-26T09:45:03.737Z,1015.98
2019-01-26T09:46:03.723Z,1015.98
2019-01-26T09:47:03.710Z,1016.03
2019-01-26T09:48:03.696Z,1016.03
2019-01-26T09:49:03.681Z,1016.03
2019-01-26T09:50:03.668Z,1016.04
2019-01-26T09:51:03.680Z,1016.04
2019-01-26T09:52:03.642Z,1016.05
2019-01-26T09:53:03.629Z,1016.08
2019-01-26T09:54:03.614Z,1016.12
2019-01-26T09:55:03.600Z,1016.18
2019-01-26T09:56:03.586Z,1016.21
2019-01-26T09:57:03.573Z,1016.24
2019-01-26T09:58:03.559Z,1016.29
2019-01-26T09:59:03.546Z,1016.25
2019-01-26T10:00:03.535Z,1016.3
2019-01-26T10:01:03.517Z,1016.26
2019-01-26T10:02:03.504Z,1016.28
2019-01-26T10:03:03.495Z,1016.27
2019-01-26T10:04:03.477Z,1016.2
2019-01-26T10:05:03.463Z,1016.22
2019-01-26T10:06:03.448Z,1016.18
2019-01-26T10:07:03.433Z,1016.19
2019-01-26T10:08:03.421Z,1016.2
2019-01-26T10:09:03.408Z,1016.19
2019-01-26T10:10:03.394Z,1016.15
2019-01-26T10:11:03.379Z,1016.14
2019-01-26T10:12:03.366Z,1016.1
2019-01-26T10:13:03.351Z,1016.12
2019-01-26T10:14:03.339Z,1016.09
2019-01-26T10:15:03.325Z,1016.07
2019-01-26T10:16:03.310Z,1016.1
2019-01-26T10:17:03.301Z,1016.05
2019-01-26T10:18:03.283Z,1016.02
2019-01-26T10:19:03.269Z,1016.05
2019-01-26T10:20:03.256Z,1016.04
2019-01-26T10:21:03.241Z,1016.02
2019-01-26T10:22:03.227Z,1016.01
2019-01-26T10:23:03.213Z,1016.02
2019-01-26T10:24:03.201Z,1015.97
2019-01-26T10:25:03.186Z,1015.97
2019-01-26T10:26:03.174Z,1016
2019-01-26T10:27:03.159Z,1015.96
2019-01-26T10:28:03.146Z,1015.93
2019-01-26T10:29:03.132Z,1015.92
2019-01-26T10:30:03.118Z,1015.89
2019-01-26T10:31:03.111Z,1015.89
2019-01-26T10:32:03.091Z,1015.88
2019-01-26T10:33:03.077Z,1015.92
2019-01-26T10:34:03.062Z,1015.93
2019-01-26T10:35:03.049Z,1015.95
2019-01-26T10:36:03.035Z,1015.95
2019-01-26T10:37:03.022Z,1015.86
2019-01-26T10:38:03.009Z,1015.86
2019-01-26T10:39:02.996Z,1015.81
2019-01-26T10:40:02.982Z,1015.85
2019-01-26T10:41:02.967Z,1015.85
2019-01-26T10:42:02.956Z,1015.89
2019-01-26T10:43:02.942Z,1015.87
2019-01-26T10:44:02.927Z,1015.9
2019-01-26T10:45:02.913Z,1015.87
2019-01-26T10:46:02.899Z,1015.87
2019-01-26T10:47:02.885Z,1015.89
2019-01-26T10:48:02.873Z,1015.91
2019-01-26T10:49:02.862Z,1015.92
2019-01-26T10:50:02.847Z,1015.86
2019-01-26T10:51:02.834Z,1015.85
2019-01-26T10:52:02.819Z,1015.79
2019-01-26T10:53:02.807Z,1015.79
2019-01-26T10:54:02.792Z,1015.78
2019-01-26T10:55:02.781Z,1015.76
2019-01-26T10:56:02.766Z,1015.75
2019-01-26T10:57:02.749Z,1015.67
2019-01-26T10:58:02.736Z,1015.66
2019-01-26T10:59:02.723Z,1015.61
2019-01-26T11:00:02.710Z,1015.64
2019-01-26T11:01:02.696Z,1015.67
2019-01-26T11:02:02.683Z,1015.64
2019-01-26T11:03:02.670Z,1015.68
2019-01-26T11:04:02.656Z,1015.64
2019-01-26T11:05:02.642Z,1015.58
2019-01-26T11:06:02.627Z,1015.57
2019-01-26T11:07:02.619Z,1015.57
2019-01-26T11:08:02.601Z,1015.58
2019-01-26T11:09:02.586Z,1015.6
2019-01-26T11:10:02.573Z,1015.53
2019-01-26T11:11:02.561Z,1015.53
2019-01-26T11:12:02.547Z,1015.46
2019-01-26T11:13:02.533Z,1015.41
2019-01-26T11:14:02.521Z,1015.39
2019-01-26T11:15:02.509Z,1015.39
2019-01-26T11:16:02.495Z,1015.39
2019-01-26T11:17:02.480Z,1015.36
2019-01-26T11:18:02.467Z,1015.34
2019-01-26T11:19:07.796Z,1015.33
2019-01-26T11:20:02.444Z,1015.29
2019-01-26T11:21:02.426Z,1015.35
2019-01-26T11:22:02.414Z,1015.37
2019-01-26T11:23:02.400Z,1015.35
2019-01-26T11:24:02.387Z,1015.38
2019-01-26T11:25:02.375Z,1015.38
2019-01-26T11:26:02.362Z,1015.42
2019-01-26T11:27:02.350Z,1015.4
2019-01-26T11:28:02.338Z,1015.39
2019-01-26T11:29:02.325Z,1015.36
2019-01-26T11:30:02.310Z,1015.37
2019-01-26T11:31:02.296Z,1015.34
2019-01-26T11:32:02.287Z,1015.38
2019-01-26T11:33:02.271Z,1015.35
2019-01-26T11:34:02.258Z,1015.33
2019-01-26T11:35:02.244Z,1015.27
2019-01-26T11:36:02.232Z,1015.28
2019-01-26T11:37:02.220Z,1015.25
2019-01-26T11:38:02.206Z,1015.19
2019-01-26T11:39:02.194Z,1015.15
2019-01-26T11:40:02.181Z,1015.1
2019-01-26T11:41:02.166Z,1015.14
2019-01-26T11:42:02.153Z,1015.15
2019-01-26T11:43:02.141Z,1015.16
2019-01-26T11:44:02.128Z,1015.14
2019-01-26T11:45:02.130Z,1015.11
2019-01-26T11:46:02.102Z,1015.08
2019-01-26T11:47:02.090Z,1015.1
2019-01-26T11:48:02.076Z,1015.05
2019-01-26T11:49:02.063Z,1015.02
2019-01-26T11:50:02.054Z,1015
2019-01-26T11:51:02.039Z,1014.95
2019-01-26T11:52:02.026Z,1014.99
2019-01-26T11:53:02.013Z,1014.96
2019-01-26T11:54:02.028Z,1014.99
2019-01-26T11:55:01.989Z,1014.98
2019-01-26T11:56:01.989Z,1014.99
2019-01-26T11:57:01.960Z,1014.98
2019-01-26T11:58:01.949Z,1014.98
2019-01-26T11:59:01.937Z,1014.93
2019-01-26T12:00:01.926Z,1014.88
2019-01-26T12:01:01.909Z,1014.86
2019-01-26T12:02:01.898Z,1014.87
2019-01-26T12:03:03.509Z,1014.86
2019-01-26T12:04:01.870Z,1014.72
2019-01-26T12:05:01.859Z,1014.68
2019-01-26T12:06:01.848Z,1014.59
2019-01-26T12:07:01.835Z,1014.57
2019-01-26T12:08:01.821Z,1014.54